Time;durP1;ratioP1;P1;durP2;ratioP2;P2;SDS_P1;SDS_P2;PMS_P1;PMS_P2;Temp;Humidity;BMP_temperature;BMP_pressure;BME280_temperature;BME280_humidity;BME280_pressure;Samples;Min_cycle;Max_cycle;Signal;HPM_P1;HPM_P2
2023/10/28 00:00:52;;;;;;;;;;;18.60;48.30;;;;;;5054587;28;19927;-69
2023/10/28 00:03:20;;;;;;;;;;;18.60;48.30;;;;;;5052294;28;19952;-71
2023/10/28 00:05:47;;;;;;;;;;;18.60;48.30;;;;;;5051051;28;19920;-67
2023/10/28 00:08:14;;;;;;;;;;;18.60;48.30;;;;;;5070256;28;20019;-70
2023/10/28 00:10:42;;;;;;;;;;;18.60;48.30;;;;;;5055844;28;19921;-69
2023/10/28 00:13:11;;;;;;;;;;;18.60;48.30;;;;;;5056243;28;20195;-70
2023/10/28 00:15:38;;;;;;;;;;;18.60;48.30;;;;;;5054478;28;19929;-71
2023/10/28 00:18:06;;;;;;;;;;;18.60;48.30;;;;;;5053215;28;19947;-70
2023/10/28 00:20:34;;;;;;;;;;;18.60;48.30;;;;;;5051539;28;19921;-70
2023/10/28 00:23:03;;;;;;;;;;;18.60;48.30;;;;;;5052561;28;19928;-65
2023/10/28 00:25:31;;;;;;;;;;;18.60;48.30;;;;;;5044130;28;19974;-70
2023/10/28 00:27:58;;;;;;;;;;;18.60;48.30;;;;;;5055897;28;19920;-71
2023/10/28 00:30:26;;;;;;;;;;;18.60;48.30;;;;;;5053459;28;20393;-69
2023/10/28 00:32:53;;;;;;;;;;;18.60;48.30;;;;;;5052649;28;19921;-68
2023/10/28 00:35:21;;;;;;;;;;;18.60;48.30;;;;;;5050321;28;19920;-63
2023/10/28 00:37:48;;;;;;;;;;;18.60;48.30;;;;;;5053398;28;19920;-71
2023/10/28 00:40:15;;;;;;;;;;;18.60;48.30;;;;;;5040799;28;19944;-70
2023/10/28 00:42:42;;;;;;;;;;;18.60;48.30;;;;;;5052244;28;19921;-71
2023/10/28 00:45:11;;;;;;;;;;;18.60;48.90;;;;;;5047341;28;19978;-69
2023/10/28 00:47:39;;;;;;;;;;;18.60;48.30;;;;;;5051981;28;19975;-69
2023/10/28 00:50:09;;;;;;;;;;;18.60;48.30;;;;;;5052190;28;19921;-67
2023/10/28 00:52:36;;;;;;;;;;;18.60;48.20;;;;;;5053130;28;20021;-67
2023/10/28 00:55:02;;;;;;;;;;;18.60;48.30;;;;;;5056106;28;19920;-68
2023/10/28 00:57:30;;;;;;;;;;;18.50;48.10;;;;;;5053345;28;19921;-70
2023/10/28 00:59:57;;;;;;;;;;;18.60;48.20;;;;;;5056126;28;19921;-71
2023/10/28 01:02:24;;;;;;;;;;;18.50;48.20;;;;;;5052552;28;19920;-67
2023/10/28 01:04:53;;;;;;;;;;;18.50;48.10;;;;;;5050089;28;19928;-72
2023/10/28 01:07:19;;;;;;;;;;;18.50;48.10;;;;;;5046675;28;20116;-71
2023/10/28 01:09:47;;;;;;;;;;;18.50;48.10;;;;;;5056751;28;19928;-71
2023/10/28 01:12:14;;;;;;;;;;;18.50;48.10;;;;;;5054609;28;19931;-70
2023/10/28 01:14:40;;;;;;;;;;;18.50;48.10;;;;;;5051758;28;19943;-71
2023/10/28 01:17:07;;;;;;;;;;;18.50;48.20;;;;;;5051447;28;19921;-69
2023/10/28 01:19:35;;;;;;;;;;;18.50;48.10;;;;;;5053854;28;19928;-72
2023/10/28 01:22:03;;;;;;;;;;;18.50;48.20;;;;;;5056256;28;19928;-67
2023/10/28 01:24:32;;;;;;;;;;;18.50;48.10;;;;;;5050267;28;19921;-71
2023/10/28 01:26:59;;;;;;;;;;;18.50;48.20;;;;;;5036086;28;19924;-72
2023/10/28 01:29:26;;;;;;;;;;;18.50;48.20;;;;;;5054493;28;19932;-68
2023/10/28 01:31:53;;;;;;;;;;;18.50;48.20;;;;;;5050056;28;19925;-64
2023/10/28 01:34:21;;;;;;;;;;;18.50;48.20;;;;;;5051957;28;19920;-71
2023/10/28 01:36:48;;;;;;;;;;;18.50;48.20;;;;;;5051541;28;19925;-68
2023/10/28 01:39:16;;;;;;;;;;;18.50;48.20;;;;;;5049295;28;19971;-71
2023/10/28 01:41:43;;;;;;;;;;;18.50;48.20;;;;;;5052429;28;19921;-69
2023/10/28 01:44:11;;;;;;;;;;;18.50;48.20;;;;;;5050215;28;19921;-69
2023/10/28 01:46:38;;;;;;;;;;;18.50;48.20;;;;;;5051666;28;19921;-71
2023/10/28 01:49:05;;;;;;;;;;;18.50;48.20;;;;;;5050431;28;19921;-66
2023/10/28 01:51:32;;;;;;;;;;;18.50;48.20;;;;;;5054035;28;19992;-69
2023/10/28 01:53:59;;;;;;;;;;;18.40;48.10;;;;;;5052259;28;19920;-68
2023/10/28 01:56:28;;;;;;;;;;;18.40;48.10;;;;;;5051288;28;19936;-70
2023/10/28 01:58:54;;;;;;;;;;;18.40;48.10;;;;;;5051365;28;19960;-67
2023/10/28 02:01:23;;;;;;;;;;;18.50;48.20;;;;;;5042584;28;19929;-70
2023/10/28 02:03:51;;;;;;;;;;;18.40;48.10;;;;;;5051383;28;19920;-71
2023/10/28 02:06:17;;;;;;;;;;;18.40;48.10;;;;;;5044384;28;20332;-71
2023/10/28 02:08:45;;;;;;;;;;;18.40;48.10;;;;;;5051977;28;19963;-70
2023/10/28 02:11:12;;;;;;;;;;;18.40;48.10;;;;;;5051428;28;19932;-72
2023/10/28 02:13:40;;;;;;;;;;;18.40;48.10;;;;;;5048630;28;19921;-71
2023/10/28 02:16:07;;;;;;;;;;;18.40;48.10;;;;;;5049351;28;19925;-69
2023/10/28 02:18:34;;;;;;;;;;;18.40;48.10;;;;;;5050152;28;19990;-72
2023/10/28 02:21:01;;;;;;;;;;;18.40;48.10;;;;;;5055118;28;19925;-68
2023/10/28 02:23:27;;;;;;;;;;;18.40;48.10;;;;;;5051654;28;19921;-70
2023/10/28 02:25:55;;;;;;;;;;;18.40;48.20;;;;;;5050398;28;19924;-69
2023/10/28 02:28:21;;;;;;;;;;;18.40;48.10;;;;;;5054723;28;19924;-70
2023/10/28 02:30:50;;;;;;;;;;;18.40;48.20;;;;;;5052701;28;19928;-72
2023/10/28 02:33:16;;;;;;;;;;;18.40;48.70;;;;;;5050834;28;19952;-71
2023/10/28 02:35:44;;;;;;;;;;;18.40;48.10;;;;;;5050749;28;19921;-71
2023/10/28 02:38:11;;;;;;;;;;;18.40;48.10;;;;;;5050232;28;19977;-69
2023/10/28 02:40:38;;;;;;;;;;;18.40;48.10;;;;;;5050293;28;19967;-70
2023/10/28 02:43:05;;;;;;;;;;;18.40;48.20;;;;;;5049513;28;19921;-63
2023/10/28 02:45:32;;;;;;;;;;;18.40;48.20;;;;;;5051355;28;19929;-69
2023/10/28 02:48:00;;;;;;;;;;;18.40;48.20;;;;;;5052915;28;19928;-71
2023/10/28 02:50:27;;;;;;;;;;;18.30;48.10;;;;;;5054384;28;20313;-70
2023/10/28 02:52:53;;;;;;;;;;;18.40;48.20;;;;;;5053217;28;19928;-68
2023/10/28 02:55:21;;;;;;;;;;;18.30;48.20;;;;;;5051765;28;19925;-70
2023/10/28 02:57:48;;;;;;;;;;;18.30;48.20;;;;;;5053018;28;19928;-72
2023/10/28 03:00:15;;;;;;;;;;;18.30;48.20;;;;;;5053193;28;19921;-71
2023/10/28 03:02:42;;;;;;;;;;;18.40;48.20;;;;;;5051692;28;20055;-71
2023/10/28 03:05:10;;;;;;;;;;;18.30;48.10;;;;;;5054613;28;19921;-69
2023/10/28 03:07:38;;;;;;;;;;;18.40;48.20;;;;;;5057287;28;19967;-72
2023/10/28 03:10:05;;;;;;;;;;;18.30;48.20;;;;;;5053695;28;20383;-66
2023/10/28 03:12:32;;;;;;;;;;;18.30;48.20;;;;;;5055115;28;19925;-72
2023/10/28 03:14:59;;;;;;;;;;;18.30;48.20;;;;;;5053144;28;19925;-72
2023/10/28 03:17:26;;;;;;;;;;;18.40;48.20;;;;;;5052436;28;19932;-68
2023/10/28 03:19:53;;;;;;;;;;;18.30;48.30;;;;;;5053743;28;19920;-71
2023/10/28 03:22:21;;;;;;;;;;;18.30;48.20;;;;;;5054336;28;19925;-69
2023/10/28 03:24:48;;;;;;;;;;;18.30;48.20;;;;;;5052859;28;19925;-68
2023/10/28 03:27:14;;;;;;;;;;;18.30;48.20;;;;;;5054491;28;19921;-69
2023/10/28 03:29:42;;;;;;;;;;;18.30;48.20;;;;;;5041639;28;19935;-72
2023/10/28 03:32:09;;;;;;;;;;;18.30;48.20;;;;;;5054032;28;19921;-70
2023/10/28 03:34:36;;;;;;;;;;;18.30;48.20;;;;;;5053005;28;19928;-66
2023/10/28 03:37:02;;;;;;;;;;;18.30;48.30;;;;;;5053699;28;19925;-71
2023/10/28 03:39:31;;;;;;;;;;;18.30;48.30;;;;;;5054066;28;19940;-71
2023/10/28 03:41:57;;;;;;;;;;;18.30;48.30;;;;;;5054540;28;19925;-72
2023/10/28 03:44:24;;;;;;;;;;;18.30;48.30;;;;;;5053568;28;19921;-69
2023/10/28 03:46:51;;;;;;;;;;;18.30;48.30;;;;;;5050026;28;19925;-72
2023/10/28 03:49:17;;;;;;;;;;;18.30;48.30;;;;;;5052995;28;19928;-68
2023/10/28 03:51:44;;;;;;;;;;;18.30;48.30;;;;;;5055666;28;19925;-72
2023/10/28 03:54:12;;;;;;;;;;;18.30;48.30;;;;;;5053856;28;19987;-67
2023/10/28 03:56:40;;;;;;;;;;;18.30;48.30;;;;;;5051980;28;19924;-71
2023/10/28 03:59:06;;;;;;;;;;;18.30;48.30;;;;;;5054983;28;19921;-70
2023/10/28 04:01:33;;;;;;;;;;;18.30;48.30;;;;;;5053860;28;19924;-70
2023/10/28 04:04:00;;;;;;;;;;;18.20;48.30;;;;;;5051698;28;19921;-64
2023/10/28 04:06:27;;;;;;;;;;;18.20;48.30;;;;;;5051352;28;19986;-68
2023/10/28 04:08:54;;;;;;;;;;;18.20;48.30;;;;;;5054605;28;19921;-71
2023/10/28 04:11:20;;;;;;;;;;;18.30;48.30;;;;;;5049601;28;19932;-68
2023/10/28 04:13:49;;;;;;;;;;;18.30;48.30;;;;;;5052993;28;19974;-72
2023/10/28 04:16:16;;;;;;;;;;;18.20;48.30;;;;;;5052870;28;20007;-69
2023/10/28 04:18:43;;;;;;;;;;;18.20;48.30;;;;;;5052369;28;19924;-65
2023/10/28 04:21:10;;;;;;;;;;;18.20;48.30;;;;;;5046078;28;20031;-71
2023/10/28 04:23:36;;;;;;;;;;;18.20;48.30;;;;;;5048188;28;19927;-70
2023/10/28 04:26:03;;;;;;;;;;;18.20;48.30;;;;;;5052701;28;19925;-65
2023/10/28 04:28:30;;;;;;;;;;;18.20;48.30;;;;;;5054831;28;19921;-67
2023/10/28 04:30:58;;;;;;;;;;;18.20;48.30;;;;;;5052582;28;20397;-71
2023/10/28 04:33:25;;;;;;;;;;;18.20;48.40;;;;;;5053306;28;19974;-71
2023/10/28 04:35:53;;;;;;;;;;;18.20;48.30;;;;;;5051764;28;19960;-69
2023/10/28 04:38:22;;;;;;;;;;;18.20;48.40;;;;;;5051557;28;19924;-72
2023/10/28 04:40:49;;;;;;;;;;;18.20;48.40;;;;;;5053288;28;19921;-71
2023/10/28 04:43:16;;;;;;;;;;;18.20;48.40;;;;;;5052085;28;19925;-67
2023/10/28 04:45:43;;;;;;;;;;;18.20;48.40;;;;;;5052150;28;19983;-71
2023/10/28 04:48:13;;;;;;;;;;;18.10;48.40;;;;;;5052206;28;20313;-69
2023/10/28 04:50:41;;;;;;;;;;;18.10;48.40;;;;;;5052962;28;19928;-70
2023/10/28 04:53:07;;;;;;;;;;;18.10;48.40;;;;;;5052904;28;19921;-68
2023/10/28 04:55:34;;;;;;;;;;;18.10;48.40;;;;;;5047620;28;19951;-71
2023/10/28 04:58:02;;;;;;;;;;;18.10;48.40;;;;;;5049968;28;19920;-69
2023/10/28 05:00:29;;;;;;;;;;;18.10;48.50;;;;;;5047446;28;19960;-70
2023/10/28 05:03:00;;;;;;;;;;;18.10;48.40;;;;;;5052377;28;19924;-72
2023/10/28 05:05:28;;;;;;;;;;;18.10;48.60;;;;;;5065042;28;19924;-71
2023/10/28 05:07:55;;;;;;;;;;;18.10;48.50;;;;;;5052822;28;19967;-72
2023/10/28 05:10:22;;;;;;;;;;;18.10;48.50;;;;;;5044578;28;19971;-72
2023/10/28 05:12:49;;;;;;;;;;;18.10;48.60;;;;;;5047629;28;19967;-68
2023/10/28 05:15:16;;;;;;;;;;;18.10;48.60;;;;;;5052954;28;19929;-71
2023/10/28 05:17:42;;;;;;;;;;;18.10;48.60;;;;;;5035684;28;20452;-73
2023/10/28 05:20:10;;;;;;;;;;;18.10;48.60;;;;;;5052860;28;19929;-69
2023/10/28 05:22:38;;;;;;;;;;;18.10;48.60;;;;;;5052214;28;19964;-71
2023/10/28 05:25:07;;;;;;;;;;;18.10;48.70;;;;;;5050442;28;19948;-66
2023/10/28 05:27:33;;;;;;;;;;;18.10;48.70;;;;;;5049002;28;19952;-73
2023/10/28 05:30:00;;;;;;;;;;;18.10;48.70;;;;;;5040833;28;19936;-72
2023/10/28 05:32:29;;;;;;;;;;;18.00;48.70;;;;;;5049141;28;19920;-68
2023/10/28 05:34:56;;;;;;;;;;;18.00;48.70;;;;;;5049407;28;19924;-72
2023/10/28 05:37:23;;;;;;;;;;;18.00;48.70;;;;;;5049103;28;19951;-67
2023/10/28 05:39:51;;;;;;;;;;;18.00;48.70;;;;;;5048470;28;19924;-71
2023/10/28 05:42:18;;;;;;;;;;;17.90;48.80;;;;;;5043712;28;19956;-71
2023/10/28 05:44:44;;;;;;;;;;;17.90;48.90;;;;;;5048471;28;19928;-68
2023/10/28 05:47:11;;;;;;;;;;;17.90;48.90;;;;;;5028396;28;19959;-71
2023/10/28 05:49:38;;;;;;;;;;;17.90;49.00;;;;;;5043836;28;19959;-70
2023/10/28 05:52:05;;;;;;;;;;;17.80;49.00;;;;;;5049219;28;19979;-69
2023/10/28 05:54:32;;;;;;;;;;;17.80;49.00;;;;;;5048794;28;19964;-71
2023/10/28 05:57:00;;;;;;;;;;;17.80;49.10;;;;;;5049003;28;19928;-68
2023/10/28 05:59:28;;;;;;;;;;;17.70;49.10;;;;;;5031217;28;20501;-71
2023/10/28 06:01:54;;;;;;;;;;;17.70;49.10;;;;;;5048799;28;20341;-72
2023/10/28 06:04:22;;;;;;;;;;;17.70;49.20;;;;;;5048204;28;19928;-69
2023/10/28 06:06:49;;;;;;;;;;;17.70;49.20;;;;;;5048189;28;20039;-71
2023/10/28 06:09:16;;;;;;;;;;;17.70;49.30;;;;;;5048671;28;20015;-71
2023/10/28 06:11:43;;;;;;;;;;;17.70;49.30;;;;;;5049729;28;19947;-71
2023/10/28 06:14:12;;;;;;;;;;;17.70;49.40;;;;;;5048549;28;19994;-70
2023/10/28 06:16:39;;;;;;;;;;;17.60;49.30;;;;;;5047880;28;19927;-72
2023/10/28 06:19:06;;;;;;;;;;;17.60;49.30;;;;;;5045281;28;19921;-67
2023/10/28 06:21:33;;;;;;;;;;;17.60;49.40;;;;;;5049502;28;20319;-72
2023/10/28 06:24:00;;;;;;;;;;;17.60;49.40;;;;;;5032822;28;19921;-67
2023/10/28 06:26:26;;;;;;;;;;;17.60;49.50;;;;;;5052030;28;19921;-66
2023/10/28 06:28:53;;;;;;;;;;;17.60;49.50;;;;;;5052450;28;19925;-70
2023/10/28 06:31:21;;;;;;;;;;;17.60;49.60;;;;;;5052399;28;19967;-66
2023/10/28 06:33:48;;;;;;;;;;;17.50;49.60;;;;;;5049225;28;19921;-70
2023/10/28 06:36:15;;;;;;;;;;;17.50;49.60;;;;;;5052825;28;19927;-70
2023/10/28 06:38:41;;;;;;;;;;;17.50;49.60;;;;;;5051799;28;19928;-72
2023/10/28 06:41:09;;;;;;;;;;;17.50;49.60;;;;;;5048074;28;19929;-68
2023/10/28 06:43:35;;;;;;;;;;;17.50;49.70;;;;;;5050610;28;19936;-72
2023/10/28 06:46:03;;;;;;;;;;;17.50;49.70;;;;;;5048923;28;19932;-67
2023/10/28 06:48:32;;;;;;;;;;;17.50;49.70;;;;;;5047771;28;19946;-69
2023/10/28 06:50:59;;;;;;;;;;;17.50;49.80;;;;;;5061118;28;19921;-69
2023/10/28 06:53:26;;;;;;;;;;;17.50;49.90;;;;;;5044551;28;20359;-69
2023/10/28 06:55:53;;;;;;;;;;;17.50;49.90;;;;;;5049019;28;19925;-69
2023/10/28 06:58:20;;;;;;;;;;;17.50;49.90;;;;;;5049119;28;19921;-66
2023/10/28 07:00:46;;;;;;;;;;;17.40;49.80;;;;;;5047241;28;19924;-69
2023/10/28 07:03:14;;;;;;;;;;;17.40;49.90;;;;;;5046365;28;19924;-68
2023/10/28 07:05:45;;;;;;;;;;;17.40;50.00;;;;;;5047440;28;20003;-71
2023/10/28 07:08:12;;;;;;;;;;;17.40;50.10;;;;;;5045794;28;19937;-64
2023/10/28 07:10:39;;;;;;;;;;;17.40;50.10;;;;;;5049462;28;19921;-71
2023/10/28 07:13:05;;;;;;;;;;;17.40;50.10;;;;;;5049162;28;19921;-66
2023/10/28 07:15:34;;;;;;;;;;;17.40;50.20;;;;;;5047835;28;20167;-60
2023/10/28 07:18:01;;;;;;;;;;;17.40;50.20;;;;;;5046944;28;19933;-64
2023/10/28 07:20:28;;;;;;;;;;;17.40;50.20;;;;;;5046433;28;19925;-68
2023/10/28 07:22:57;;;;;;;;;;;17.40;50.30;;;;;;5047293;28;19947;-70
2023/10/28 07:25:23;;;;;;;;;;;17.40;50.30;;;;;;5047908;28;19939;-68
2023/10/28 07:27:50;;;;;;;;;;;17.30;50.30;;;;;;5046878;28;19967;-67
2023/10/28 07:30:17;;;;;;;;;;;17.30;50.30;;;;;;5044725;28;19971;-69
2023/10/28 07:32:44;;;;;;;;;;;17.30;50.30;;;;;;5047848;28;19928;-71
2023/10/28 07:35:11;;;;;;;;;;;17.30;50.40;;;;;;5044702;28;19971;-69
2023/10/28 07:37:37;;;;;;;;;;;17.30;50.50;;;;;;5046527;28;19932;-71
2023/10/28 07:40:07;;;;;;;;;;;17.30;50.40;;;;;;5049199;28;19933;-64
2023/10/28 07:42:35;;;;;;;;;;;17.30;50.50;;;;;;5047175;28;19968;-71
2023/10/28 07:45:02;;;;;;;;;;;17.20;50.50;;;;;;5048176;28;19952;-71
2023/10/28 07:47:31;;;;;;;;;;;17.20;50.50;;;;;;5045038;28;19956;-70
2023/10/28 07:49:58;;;;;;;;;;;17.20;50.50;;;;;;5048169;28;19924;-68
2023/10/28 07:52:25;;;;;;;;;;;17.20;50.60;;;;;;5045441;28;19939;-65
2023/10/28 07:54:51;;;;;;;;;;;17.20;50.60;;;;;;5048298;28;19931;-71
2023/10/28 07:57:20;;;;;;;;;;;17.20;50.60;;;;;;5045794;28;19924;-68
2023/10/28 07:59:46;;;;;;;;;;;17.20;50.60;;;;;;5048922;28;19921;-73
2023/10/28 08:02:13;;;;;;;;;;;17.20;50.60;;;;;;5046158;28;19932;-67
2023/10/28 08:04:40;;;;;;;;;;;17.30;50.60;;;;;;5048598;28;19921;-68
2023/10/28 08:07:07;;;;;;;;;;;17.20;50.50;;;;;;5046208;28;19935;-63
2023/10/28 08:09:33;;;;;;;;;;;17.30;50.60;;;;;;5029945;28;19990;-70
2023/10/28 08:12:00;;;;;;;;;;;17.30;50.60;;;;;;5047329;28;19925;-72
2023/10/28 08:14:31;;;;;;;;;;;17.30;50.70;;;;;;5049576;28;19925;-69
2023/10/28 08:16:58;;;;;;;;;;;17.30;50.90;;;;;;5047884;28;19925;-65
2023/10/28 08:19:26;;;;;;;;;;;17.30;50.90;;;;;;5049045;28;19921;-65
2023/10/28 08:21:53;;;;;;;;;;;17.20;50.80;;;;;;5050419;28;19944;-67
2023/10/28 08:24:22;;;;;;;;;;;17.20;50.70;;;;;;5048972;28;19925;-72
2023/10/28 08:26:49;;;;;;;;;;;17.20;50.60;;;;;;5049824;28;20037;-72
2023/10/28 08:29:15;;;;;;;;;;;17.20;50.50;;;;;;5047057;28;19984;-68
2023/10/28 08:31:44;;;;;;;;;;;17.30;50.60;;;;;;5052061;28;19924;-72
2023/10/28 08:34:10;;;;;;;;;;;17.30;50.50;;;;;;5050993;28;19955;-67
2023/10/28 08:36:37;;;;;;;;;;;17.40;50.50;;;;;;5048461;28;19925;-69
2023/10/28 08:39:05;;;;;;;;;;;17.40;50.40;;;;;;5033021;28;19928;-69
2023/10/28 08:41:32;;;;;;;;;;;17.50;50.30;;;;;;5051505;28;20008;-69
2023/10/28 08:43:58;;;;;;;;;;;17.50;50.30;;;;;;5065834;28;20015;-72
2023/10/28 08:46:25;;;;;;;;;;;17.60;50.20;;;;;;5049135;28;19925;-65
2023/10/28 08:48:53;;;;;;;;;;;17.60;50.20;;;;;;5048269;28;19971;-64
2023/10/28 08:51:20;;;;;;;;;;;17.60;50.10;;;;;;5048540;28;19928;-71
2023/10/28 08:53:47;;;;;;;;;;;17.70;50.20;;;;;;5049337;28;19921;-73
2023/10/28 08:56:14;;;;;;;;;;;17.70;50.10;;;;;;5049076;28;19975;-70
2023/10/28 08:58:50;;;;;;;;;;;17.70;50.10;;;;;;5048977;28;19925;-73
2023/10/28 09:01:16;;;;;;;;;;;17.70;50.00;;;;;;5048933;28;19955;-69
2023/10/28 09:03:43;;;;;;;;;;;17.80;50.10;;;;;;5048314;28;19921;-72
2023/10/28 09:06:12;;;;;;;;;;;17.80;50.00;;;;;;5048732;28;19924;-71
2023/10/28 09:08:39;;;;;;;;;;;17.80;50.10;;;;;;5036402;28;19978;-73
2023/10/28 09:11:07;;;;;;;;;;;17.90;50.10;;;;;;5049416;28;19921;-72
2023/10/28 09:13:34;;;;;;;;;;;17.80;50.00;;;;;;5049742;28;20019;-72
2023/10/28 09:16:01;;;;;;;;;;;17.90;50.10;;;;;;5050328;28;19935;-74
2023/10/28 09:18:37;;;;;;;;;;;17.90;50.60;;;;;;5046876;28;19975;-71
2023/10/28 09:21:04;;;;;;;;;;;17.90;50.10;;;;;;5039103;28;19921;-69
2023/10/28 09:23:33;;;;;;;;;;;17.90;50.00;;;;;;5048742;28;19927;-72
2023/10/28 09:25:59;;;;;;;;;;;17.90;50.00;;;;;;5048451;28;19931;-60
2023/10/28 09:28:27;;;;;;;;;;;17.90;50.10;;;;;;5044224;28;19960;-60
2023/10/28 09:30:54;;;;;;;;;;;18.00;50.30;;;;;;5040804;28;19963;-60
2023/10/28 09:33:21;;;;;;;;;;;18.00;50.40;;;;;;5045912;28;19921;-60
2023/10/28 09:35:48;;;;;;;;;;;18.00;50.50;;;;;;5044407;28;19967;-60
2023/10/28 09:38:14;;;;;;;;;;;18.10;50.60;;;;;;5047566;28;20366;-60
2023/10/28 09:40:42;;;;;;;;;;;18.10;50.70;;;;;;5048953;28;19967;-60
2023/10/28 09:43:09;;;;;;;;;;;18.10;50.70;;;;;;5042181;28;19921;-60
2023/10/28 09:45:36;;;;;;;;;;;18.10;50.70;;;;;;5044351;28;19924;-60
2023/10/28 09:48:05;;;;;;;;;;;18.20;50.80;;;;;;5044491;28;19967;-60
2023/10/28 09:50:32;;;;;;;;;;;18.20;50.80;;;;;;5038419;28;20028;-59
2023/10/28 09:52:59;;;;;;;;;;;18.30;50.90;;;;;;5046221;28;19924;-60
2023/10/28 09:55:26;;;;;;;;;;;18.20;50.80;;;;;;5040567;28;19921;-60
2023/10/28 09:57:56;;;;;;;;;;;18.30;50.80;;;;;;5046989;28;19936;-60
2023/10/28 10:00:23;;;;;;;;;;;18.30;50.80;;;;;;5044131;28;19974;-60
2023/10/28 10:02:54;;;;;;;;;;;18.40;50.90;;;;;;5049447;28;19932;-60
2023/10/28 10:05:23;;;;;;;;;;;18.30;50.90;;;;;;5048406;28;19989;-60
2023/10/28 10:07:50;;;;;;;;;;;18.40;50.90;;;;;;5048820;28;19925;-60
2023/10/28 10:10:19;;;;;;;;;;;18.40;50.90;;;;;;5043861;28;20342;-60
2023/10/28 10:12:48;;;;;;;;;;;18.40;50.90;;;;;;5048073;28;19927;-60
2023/10/28 10:15:19;;;;;;;;;;;18.40;50.80;;;;;;5049503;28;19943;-60
2023/10/28 10:17:49;;;;;;;;;;;18.50;50.90;;;;;;5061637;28;19927;-60
2023/10/28 10:20:23;;;;;;;;;;;18.50;50.90;;;;;;5049169;28;19956;-61
2023/10/28 10:22:54;;;;;;;;;;;18.50;50.80;;;;;;5025015;28;20410;-59
2023/10/28 10:25:29;;;;;;;;;;;18.50;50.80;;;;;;5040745;28;19921;-59
2023/10/28 10:28:05;;;;;;;;;;;18.50;50.80;;;;;;5048178;28;20594;-59
2023/10/28 10:30:35;;;;;;;;;;;18.50;50.80;;;;;;5047347;28;19920;-60
2023/10/28 10:33:03;;;;;;;;;;;18.50;50.70;;;;;;5041453;28;19924;-60
2023/10/28 10:35:31;;;;;;;;;;;18.60;50.80;;;;;;5049155;28;20350;-59
2023/10/28 10:38:02;;;;;;;;;;;18.50;50.70;;;;;;5048530;28;19925;-59
2023/10/28 10:40:31;;;;;;;;;;;18.60;50.80;;;;;;5045313;28;19975;-60
2023/10/28 10:42:58;;;;;;;;;;;18.60;50.80;;;;;;5039337;28;19925;-59
2023/10/28 10:45:24;;;;;;;;;;;18.60;50.70;;;;;;5047519;28;19979;-60
2023/10/28 10:47:53;;;;;;;;;;;18.60;50.70;;;;;;5040899;28;19920;-59
2023/10/28 10:50:19;;;;;;;;;;;18.60;50.70;;;;;;5047469;28;19928;-59
2023/10/28 10:52:46;;;;;;;;;;;18.60;50.70;;;;;;5048296;28;19933;-59
2023/10/28 10:55:15;;;;;;;;;;;18.60;50.70;;;;;;5048149;28;19921;-60
2023/10/28 10:57:42;;;;;;;;;;;18.70;50.80;;;;;;5049180;28;19921;-59
2023/10/28 11:00:12;;;;;;;;;;;18.70;50.70;;;;;;5047466;28;19927;-60
2023/10/28 11:02:39;;;;;;;;;;;18.70;50.70;;;;;;5045452;28;20177;-59
2023/10/28 11:05:08;;;;;;;;;;;18.70;50.70;;;;;;5042400;28;19944;-59
2023/10/28 11:07:35;;;;;;;;;;;18.70;50.70;;;;;;5050287;28;19925;-59
2023/10/28 11:10:04;;;;;;;;;;;18.70;50.70;;;;;;5051779;28;20006;-58
2023/10/28 11:12:31;;;;;;;;;;;18.70;50.80;;;;;;5032271;28;20024;-57
2023/10/28 11:14:58;;;;;;;;;;;18.70;51.00;;;;;;5039500;28;19925;-57
2023/10/28 11:17:25;;;;;;;;;;;18.70;51.10;;;;;;5049850;28;19928;-57
2023/10/28 11:19:52;;;;;;;;;;;18.80;51.30;;;;;;5050730;28;19925;-57
2023/10/28 11:22:20;;;;;;;;;;;18.80;51.50;;;;;;5046635;28;19925;-57
2023/10/28 11:24:47;;;;;;;;;;;18.80;51.60;;;;;;5050013;28;19920;-56
2023/10/28 11:27:24;;;;;;;;;;;18.80;51.80;;;;;;5050355;28;19921;-50
2023/10/28 11:29:51;;;;;;;;;;;18.90;55.70;;;;;;5048133;28;20011;-54
2023/10/28 11:32:19;;;;;;;;;;;19.00;53.80;;;;;;5048730;28;19920;-52
2023/10/28 11:34:46;;;;;;;;;;;19.00;53.90;;;;;;5043396;28;19920;-52
2023/10/28 11:37:13;;;;;;;;;;;19.10;53.90;;;;;;5047186;28;19933;-47
2023/10/28 11:39:41;;;;;;;;;;;19.30;61.60;;;;;;5052103;28;19928;-56
2023/10/28 11:42:09;;;;;;;;;;;20.00;56.00;;;;;;5049889;28;19947;-56
2023/10/28 11:44:36;;;;;;;;;;;20.50;53.30;;;;;;5056746;28;19921;-54
2023/10/28 11:47:03;;;;;;;;;;;21.00;52.10;;;;;;5052718;28;19921;-61
2023/10/28 11:49:30;;;;;;;;;;;21.50;51.10;;;;;;5051190;28;19996;-54
2023/10/28 11:51:57;;;;;;;;;;;21.90;51.30;;;;;;5051113;28;19921;-58
2023/10/28 11:54:24;;;;;;;;;;;22.20;49.60;;;;;;5048280;28;19921;-56
2023/10/28 11:56:52;;;;;;;;;;;22.50;49.20;;;;;;5044237;28;19925;-57
2023/10/28 11:59:19;;;;;;;;;;;22.70;48.40;;;;;;5045181;28;19921;-58
2023/10/28 12:01:45;;;;;;;;;;;23.00;47.60;;;;;;5051186;28;19925;-58
2023/10/28 12:04:12;;;;;;;;;;;23.20;46.10;;;;;;5043389;28;19933;-58
2023/10/28 12:06:39;;;;;;;;;;;23.30;45.10;;;;;;5049081;28;19925;-59
2023/10/28 12:09:11;;;;;;;;;;;23.40;44.20;;;;;;5045611;28;19924;-59
2023/10/28 12:11:37;;;;;;;;;;;23.60;44.00;;;;;;5044286;28;20198;-59
2023/10/28 12:14:07;;;;;;;;;;;23.60;43.90;;;;;;5046264;28;20369;-61
2023/10/28 12:16:35;;;;;;;;;;;23.70;43.80;;;;;;5046959;28;19929;-61
2023/10/28 12:19:02;;;;;;;;;;;23.80;43.80;;;;;;5047419;28;19921;-61
2023/10/28 12:21:30;;;;;;;;;;;23.90;43.70;;;;;;5044578;28;20612;-61
2023/10/28 12:23:57;;;;;;;;;;;24.00;43.40;;;;;;5044425;28;19924;-61
2023/10/28 12:26:23;;;;;;;;;;;24.30;43.20;;;;;;5041246;28;19921;-61
2023/10/28 12:28:52;;;;;;;;;;;24.40;42.90;;;;;;5045943;28;20263;-61
2023/10/28 12:31:22;;;;;;;;;;;24.60;42.60;;;;;;5047866;28;19921;-61
2023/10/28 12:33:49;;;;;;;;;;;24.70;42.40;;;;;;5047859;28;19929;-61
2023/10/28 12:36:16;;;;;;;;;;;24.80;42.20;;;;;;5054048;28;19952;-61
2023/10/28 12:38:44;;;;;;;;;;;24.90;42.00;;;;;;5049364;28;19927;-61
2023/10/28 12:41:11;;;;;;;;;;;25.10;41.70;;;;;;5047363;28;19920;-61
2023/10/28 12:43:39;;;;;;;;;;;25.20;41.60;;;;;;5047331;28;19929;-61
2023/10/28 12:46:06;;;;;;;;;;;25.30;41.30;;;;;;5044984;28;19932;-61
2023/10/28 12:48:34;;;;;;;;;;;25.40;41.10;;;;;;5046685;28;19925;-61
2023/10/28 12:51:01;;;;;;;;;;;25.50;40.90;;;;;;5045092;28;19925;-61
2023/10/28 12:53:28;;;;;;;;;;;25.60;40.70;;;;;;5042026;28;19925;-61
2023/10/28 12:55:54;;;;;;;;;;;25.70;40.60;;;;;;5050004;28;19924;-61
2023/10/28 12:58:21;;;;;;;;;;;25.80;40.40;;;;;;5049385;28;20353;-61
2023/10/28 13:00:49;;;;;;;;;;;25.80;40.20;;;;;;5045125;28;19947;-61
2023/10/28 13:03:16;;;;;;;;;;;25.90;40.20;;;;;;5048297;28;19921;-61
2023/10/28 13:05:44;;;;;;;;;;;25.90;40.20;;;;;;5045803;28;19921;-61
2023/10/28 13:08:11;;;;;;;;;;;26.00;40.10;;;;;;5045922;28;19932;-61
2023/10/28 13:10:38;;;;;;;;;;;26.00;39.80;;;;;;5046714;28;19921;-61
2023/10/28 13:13:05;;;;;;;;;;;26.10;39.70;;;;;;5041689;28;19971;-61
2023/10/28 13:15:32;;;;;;;;;;;26.10;39.70;;;;;;5040857;28;19921;-61
2023/10/28 13:17:59;;;;;;;;;;;26.20;39.60;;;;;;5046819;28;19921;-61
2023/10/28 13:20:27;;;;;;;;;;;26.20;39.60;;;;;;5045057;28;19921;-61
2023/10/28 13:22:55;;;;;;;;;;;26.20;39.50;;;;;;5042965;28;19921;-61
2023/10/28 13:25:22;;;;;;;;;;;26.30;39.40;;;;;;5038719;28;19921;-61
2023/10/28 13:27:48;;;;;;;;;;;26.30;39.30;;;;;;5042359;28;19920;-61
2023/10/28 13:30:16;;;;;;;;;;;26.30;39.20;;;;;;5044768;28;19925;-61
2023/10/28 13:32:43;;;;;;;;;;;26.40;39.30;;;;;;5046880;28;19952;-60
2023/10/28 13:35:11;;;;;;;;;;;26.40;39.30;;;;;;5048024;28;19956;-61
2023/10/28 13:37:38;;;;;;;;;;;26.50;39.20;;;;;;5050044;28;19920;-60
2023/10/28 13:40:08;;;;;;;;;;;26.50;39.20;;;;;;5042924;28;19924;-61
2023/10/28 13:42:34;;;;;;;;;;;26.40;39.10;;;;;;5041138;28;19972;-59
2023/10/28 13:45:01;;;;;;;;;;;26.40;39.30;;;;;;5041329;28;20015;-60
2023/10/28 13:47:28;;;;;;;;;;;26.40;39.20;;;;;;5041344;28;19939;-60
2023/10/28 13:49:55;;;;;;;;;;;26.30;39.30;;;;;;5038042;28;19932;-61
2023/10/28 13:52:22;;;;;;;;;;;26.30;39.40;;;;;;5047410;28;19982;-61
2023/10/28 13:54:50;;;;;;;;;;;26.20;39.50;;;;;;5046057;28;19920;-60
2023/10/28 13:57:18;;;;;;;;;;;26.20;39.60;;;;;;5045948;28;19925;-61
2023/10/28 13:59:45;;;;;;;;;;;26.10;39.60;;;;;;5048906;28;19932;-60
2023/10/28 14:02:12;;;;;;;;;;;26.10;39.60;;;;;;5048064;28;19979;-60
2023/10/28 14:04:41;;;;;;;;;;;26.10;39.60;;;;;;5042234;28;19921;-60
2023/10/28 14:07:08;;;;;;;;;;;26.10;39.50;;;;;;5043496;28;20005;-61
2023/10/28 14:09:34;;;;;;;;;;;26.00;39.70;;;;;;5044100;28;19925;-60
2023/10/28 14:12:02;;;;;;;;;;;26.00;39.80;;;;;;5044563;28;19921;-60
2023/10/28 14:14:30;;;;;;;;;;;26.00;39.80;;;;;;5038958;28;19921;-61
2023/10/28 14:16:57;;;;;;;;;;;25.90;39.80;;;;;;5037289;28;19983;-61